Time;durP1;ratioP1;P1;durP2;ratioP2;P2;SDS_P1;SDS_P2;PMS_P1;PMS_P2;Temp;Humidity;BMP_temperature;BMP_pressure;BME280_temperature;BME280_humidity;BME280_pressure;Samples;Min_cycle;Max_cycle;Signal;HPM_P1;HPM_P2
2022/11/25 00:01:26;;;;;;;106.65;29.58;;;;;;;;;;5031245;28;20413;-72
2022/11/25 00:03:56;;;;;;;80.25;28.88;;;;;;;;;;5031275;28;20026;-73
2022/11/25 00:06:42;;;;;;;118.97;29.10;;;;;;;;;;5032533;28;20053;-73
2022/11/25 00:09:12;;;;;;;110.45;29.65;;;;;;;;;;5036398;28;20026;-74
2022/11/25 00:11:38;;;;;;;106.78;28.55;;;;;;;;;;5036839;28;20035;-73
2022/11/25 00:14:05;;;;;;;84.70;29.40;;;;;;;;;;5036761;28;20044;-73
2022/11/25 00:16:31;;;;;;;62.67;29.10;;;;;;;;;;5035798;28;20038;-73
2022/11/25 00:18:57;;;;;;;101.53;28.73;;;;;;;;;;5037570;28;20029;-74
2022/11/25 00:21:27;;;;;;;123.93;29.67;;;;;;;;;;5033264;28;20494;-73
2022/11/25 00:23:54;;;;;;;84.75;28.10;;;;;;;;;;5032114;28;20026;-75
2022/11/25 00:26:21;;;;;;;78.03;28.17;;;;;;;;;;5032224;28;20391;-73
2022/11/25 00:28:47;;;;;;;132.23;30.33;;;;;;;;;;5032537;28;20549;-75
2022/11/25 00:31:15;;;;;;;92.80;28.40;;;;;;;;;;5039234;28;20025;-76
2022/11/25 00:33:42;;;;;;;90.68;28.20;;;;;;;;;;5038374;28;20043;-72
2022/11/25 00:36:16;;;;;;;141.48;27.95;;;;;;;;;;5034482;28;20032;-74
2022/11/25 00:38:41;;;;;;;55.72;27.45;;;;;;;;;;5034513;28;20025;-75
2022/11/25 00:46:37;;;;;;;105.72;27.02;;;;;;;;;;5039876;28;20479;-73
2022/11/25 00:49:03;;;;;;;85.47;26.60;;;;;;;;;;5050251;28;20018;-76
2022/11/25 00:51:29;;;;;;;133.63;27.30;;;;;;;;;;5053456;28;20040;-77
2022/11/25 00:53:54;;;;;;;57.10;25.80;;;;;;;;;;5056510;28;20032;-79
2022/11/25 00:56:22;;;;;;;87.47;26.85;;;;;;;;;;5057860;28;20043;-79
2022/11/25 00:58:48;;;;;;;83.03;27.63;;;;;;;;;;5036923;28;20014;-73
2022/11/25 01:01:14;;;;;;;68.20;26.30;;;;;;;;;;5033973;28;20080;-74
2022/11/25 01:03:40;;;;;;;74.47;28.80;;;;;;;;;;5034359;28;20017;-72
2022/11/25 01:06:08;;;;;;;125.50;29.58;;;;;;;;;;5033950;28;20033;-75
2022/11/25 01:08:34;;;;;;;79.57;28.83;;;;;;;;;;5034132;28;20407;-73
2022/11/25 01:11:01;;;;;;;99.03;29.10;;;;;;;;;;5032883;28;20159;-74
2022/11/25 01:13:27;;;;;;;100.47;29.77;;;;;;;;;;5034590;28;20075;-73
2022/11/25 01:15:53;;;;;;;152.70;30.10;;;;;;;;;;5039648;28;20120;-72
2022/11/25 01:18:19;;;;;;;80.90;29.95;;;;;;;;;;5042426;28;20049;-76
2022/11/25 01:20:45;;;;;;;138.77;30.55;;;;;;;;;;5034067;28;20029;-73
2022/11/25 01:23:11;;;;;;;70.95;30.23;;;;;;;;;;5033499;28;20032;-73
2022/11/25 01:25:38;;;;;;;84.88;30.33;;;;;;;;;;5034572;28;20350;-74
2022/11/25 01:28:04;;;;;;;138.27;32.00;;;;;;;;;;5038380;28;20036;-73
2022/11/25 01:30:30;;;;;;;71.47;33.38;;;;;;;;;;5038599;28;20061;-75
2022/11/25 01:32:56;;;;;;;79.85;30.80;;;;;;;;;;5038372;28;20045;-73
2022/11/25 01:35:22;;;;;;;91.20;31.13;;;;;;;;;;5038619;28;20030;-73
2022/11/25 01:37:48;;;;;;;68.60;31.85;;;;;;;;;;5038049;28;20022;-74
2022/11/25 01:40:14;;;;;;;85.55;31.92;;;;;;;;;;5038267;28;20025;-74
2022/11/25 01:42:45;;;;;;;126.85;30.50;;;;;;;;;;5037208;28;20517;-74
2022/11/25 01:45:37;;;;;;;83.20;31.27;;;;;;;;;;5035983;28;20095;-72
2022/11/25 01:48:12;;;;;;;63.72;32.72;;;;;;;;;;5031388;28;20049;-72
2022/11/25 01:50:38;;;;;;;;;;;;;;;;;;5033581;28;20104;-73
2022/11/25 01:53:05;;;;;;;76.57;32.42;;;;;;;;;;5048159;28;19905;-73
2022/11/25 01:55:33;;;;;;;81.43;32.42;;;;;;;;;;5032554;28;20029;-75
2022/11/25 01:58:03;;;;;;;97.10;33.80;;;;;;;;;;5032965;28;20593;-72
2022/11/25 02:00:29;;;;;;;63.08;32.42;;;;;;;;;;5033497;28;20060;-72
2022/11/25 02:02:57;;;;;;;70.95;33.80;;;;;;;;;;5032615;28;20028;-74
2022/11/25 02:05:29;;;;;;;78.97;34.80;;;;;;;;;;5032670;28;20061;-80
2022/11/25 02:07:56;;;;;;;74.43;33.70;;;;;;;;;;5033395;28;20028;-72
2022/11/25 02:10:25;;;;;;;79.47;34.65;;;;;;;;;;5033555;28;20040;-73
2022/11/25 02:12:51;;;;;;;83.50;35.60;;;;;;;;;;5033461;28;20057;-73
2022/11/25 02:15:17;;;;;;;87.95;36.67;;;;;;;;;;5032425;28;20515;-73
2022/11/25 02:17:44;;;;;;;91.07;37.60;;;;;;;;;;5032718;28;20100;-71
2022/11/25 02:20:15;;;;;;;81.05;37.63;;;;;;;;;;5032762;28;20030;-72
2022/11/25 02:23:00;;;;;;;74.85;36.40;;;;;;;;;;5032523;28;20026;-72
2022/11/25 02:25:28;;;;;;;91.88;39.05;;;;;;;;;;5032619;28;20152;-75
2022/11/25 02:27:59;;;;;;;77.28;36.88;;;;;;;;;;5037030;28;20029;-75
2022/11/25 02:30:25;;;;;;;76.07;36.78;;;;;;;;;;5040180;28;20029;-73
2022/11/25 02:32:51;;;;;;;77.65;37.67;;;;;;;;;;5032619;28;20088;-72
2022/11/25 02:35:25;;;;;;;83.80;37.88;;;;;;;;;;5032256;28;20029;-72
2022/11/25 02:37:51;;;;;;;82.75;39.33;;;;;;;;;;5032370;28;20026;-74
2022/11/25 02:40:17;;;;;;;75.72;37.58;;;;;;;;;;5032382;28;20034;-72
2022/11/25 02:42:44;;;;;;;71.60;35.70;;;;;;;;;;5033345;28;20025;-73
2022/11/25 02:45:12;;;;;;;77.72;37.35;;;;;;;;;;5030909;28;20017;-74
2022/11/25 02:47:38;;;;;;;71.05;36.22;;;;;;;;;;5032637;28;20053;-72
2022/11/25 02:50:04;;;;;;;79.15;36.67;;;;;;;;;;5032042;28;20017;-73
2022/11/25 02:52:30;;;;;;;71.13;34.30;;;;;;;;;;5031568;28;20025;-71
2022/11/25 02:54:56;;;;;;;83.97;36.65;;;;;;;;;;5032758;28;20131;-73
2022/11/25 02:57:22;;;;;;;77.82;37.30;;;;;;;;;;5032380;28;20044;-71
2022/11/25 02:59:48;;;;;;;70.95;33.85;;;;;;;;;;5033508;28;20029;-74
2022/11/25 03:02:14;;;;;;;73.15;35.80;;;;;;;;;;5035650;28;20032;-73
2022/11/25 03:04:40;;;;;;;74.78;34.97;;;;;;;;;;5043199;28;20025;-73
2022/11/25 03:07:06;;;;;;;74.75;36.17;;;;;;;;;;5043356;28;20438;-72
2022/11/25 03:09:32;;;;;;;68.88;35.65;;;;;;;;;;5046102;28;20021;-76
2022/11/25 03:14:42;;;;;;;83.20;37.88;;;;;;;;;;5043083;28;20113;-71
2022/11/25 03:17:08;;;;;;;74.90;37.30;;;;;;;;;;5030608;28;20104;-70
2022/11/25 03:19:34;;;;;;;76.68;37.67;;;;;;;;;;5032396;28;20029;-72
2022/11/25 03:22:00;;;;;;;71.65;36.33;;;;;;;;;;5032001;28;20022;-72
2022/11/25 03:24:26;;;;;;;73.78;36.85;;;;;;;;;;5032223;28;20029;-71
2022/11/25 03:26:52;;;;;;;68.78;34.38;;;;;;;;;;5031771;28;20029;-73
2022/11/25 03:29:18;;;;;;;64.55;32.83;;;;;;;;;;5030556;28;20029;-72
2022/11/25 03:31:45;;;;;;;60.30;30.63;;;;;;;;;;5032019;28;20033;-73
2022/11/25 03:34:11;;;;;;;60.80;30.60;;;;;;;;;;5033023;28;20037;-75
2022/11/25 03:36:36;;;;;;;58.78;30.38;;;;;;;;;;5032038;28;20045;-76
2022/11/25 03:39:02;;;;;;;59.85;30.85;;;;;;;;;;5032596;28;20022;-75
2022/11/25 03:41:29;;;;;;;67.30;30.58;;;;;;;;;;5032143;28;20043;-75
2022/11/25 03:43:54;;;;;;;53.78;28.67;;;;;;;;;;5030959;28;20033;-76
2022/11/25 03:46:21;;;;;;;54.25;28.58;;;;;;;;;;5031800;28;20030;-74
2022/11/25 03:48:47;;;;;;;61.72;29.23;;;;;;;;;;5032596;28;20040;-74
2022/11/25 03:51:12;;;;;;;56.35;28.63;;;;;;;;;;5032376;28;20038;-76
2022/11/25 03:53:38;;;;;;;60.67;30.75;;;;;;;;;;5032723;28;20030;-74
2022/11/25 03:56:04;;;;;;;69.50;32.28;;;;;;;;;;5033056;28;20498;-75
2022/11/25 03:58:30;;;;;;;54.28;28.65;;;;;;;;;;5035022;28;20025;-73
2022/11/25 04:01:00;;;;;;;64.53;29.83;;;;;;;;;;5034516;28;20056;-74
2022/11/25 04:03:27;;;;;;;51.58;29.33;;;;;;;;;;5035507;28;20036;-73
2022/11/25 04:05:53;;;;;;;64.22;29.58;;;;;;;;;;5038599;28;20025;-75
2022/11/25 04:08:19;;;;;;;66.03;29.20;;;;;;;;;;5041109;28;20391;-74
2022/11/25 04:10:45;;;;;;;63.80;29.77;;;;;;;;;;5044851;28;20113;-74
2022/11/25 04:13:10;;;;;;;56.83;27.83;;;;;;;;;;5044133;28;20040;-76
2022/11/25 04:15:36;;;;;;;62.78;28.85;;;;;;;;;;5041256;28;20045;-76
2022/11/25 04:18:02;;;;;;;58.75;28.77;;;;;;;;;;5041796;28;20026;-76
2022/11/25 04:20:28;;;;;;;61.30;26.95;;;;;;;;;;5043827;28;20032;-74
2022/11/25 04:22:54;;;;;;;59.78;29.60;;;;;;;;;;5045509;28;20053;-74
2022/11/25 04:25:20;;;;;;;62.42;30.25;;;;;;;;;;5046286;28;20041;-74
2022/11/25 04:27:46;;;;;;;63.25;28.88;;;;;;;;;;5034178;28;20029;-75
2022/11/25 04:30:12;;;;;;;68.85;29.17;;;;;;;;;;5035636;28;20079;-78
2022/11/25 04:32:38;;;;;;;60.17;28.42;;;;;;;;;;5036895;28;20033;-78
2022/11/25 04:35:04;;;;;;;66.80;28.33;;;;;;;;;;5036798;28;20037;-74
2022/11/25 04:37:30;;;;;;;54.70;27.63;;;;;;;;;;5035090;28;20467;-75
2022/11/25 04:39:56;;;;;;;62.08;27.40;;;;;;;;;;5034114;28;20049;-74
2022/11/25 04:42:31;;;;;;;57.58;26.40;;;;;;;;;;5054022;28;20073;-73
2022/11/25 04:44:58;;;;;;;58.33;28.77;;;;;;;;;;5056132;28;20403;-76
2022/11/25 04:47:24;;;;;;;59.85;26.63;;;;;;;;;;5042888;28;20075;-76
2022/11/25 04:49:50;;;;;;;54.90;25.48;;;;;;;;;;5035871;28;20386;-75
2022/11/25 04:52:16;;;;;;;53.38;26.23;;;;;;;;;;5037319;28;20479;-75
2022/11/25 04:54:42;;;;;;;61.45;26.77;;;;;;;;;;5035788;28;20037;-75
2022/11/25 04:57:12;;;;;;;63.03;25.77;;;;;;;;;;5034996;28;20175;-74
2022/11/25 04:59:38;;;;;;;56.47;24.75;;;;;;;;;;5035556;28;20052;-78
2022/11/25 05:02:04;;;;;;;55.45;25.70;;;;;;;;;;5044730;28;20081;-73
2022/11/25 05:04:30;;;;;;;54.92;26.38;;;;;;;;;;5053761;28;20017;-75
2022/11/25 05:06:56;;;;;;;49.17;24.75;;;;;;;;;;5038561;28;20030;-74
2022/11/25 05:09:22;;;;;;;53.00;23.83;;;;;;;;;;5034981;28;20032;-73
2022/11/25 05:11:48;;;;;;;44.90;23.85;;;;;;;;;;5035355;28;20029;-73
2022/11/25 05:14:14;;;;;;;51.53;23.08;;;;;;;;;;5035680;28;20025;-76
2022/11/25 05:16:40;;;;;;;58.63;23.38;;;;;;;;;;5034474;28;20083;-76
2022/11/25 05:19:06;;;;;;;49.72;22.70;;;;;;;;;;5036720;28;20025;-77
2022/11/25 05:21:32;;;;;;;55.88;24.50;;;;;;;;;;5043243;28;20041;-76
2022/11/25 05:23:58;;;;;;;50.67;22.92;;;;;;;;;;5047848;28;20026;-73
2022/11/25 05:26:24;;;;;;;47.05;21.48;;;;;;;;;;5049793;28;20089;-75
2022/11/25 05:28:50;;;;;;;61.15;23.23;;;;;;;;;;5047840;28;20026;-76
2022/11/25 05:31:16;;;;;;;49.42;22.58;;;;;;;;;;5047375;28;20026;-76
2022/11/25 05:33:42;;;;;;;57.05;23.35;;;;;;;;;;5041035;28;20061;-76
2022/11/25 05:36:08;;;;;;;43.75;20.20;;;;;;;;;;5036706;28;20029;-76
2022/11/25 05:38:34;;;;;;;47.03;20.90;;;;;;;;;;5037485;28;20051;-75
2022/11/25 05:41:01;;;;;;;47.15;20.98;;;;;;;;;;5036463;28;20081;-76
2022/11/25 05:43:27;;;;;;;42.25;19.40;;;;;;;;;;5037991;28;20033;-76
2022/11/25 05:45:52;;;;;;;50.25;21.05;;;;;;;;;;5039370;28;20040;-76
2022/11/25 05:48:18;;;;;;;47.35;19.40;;;;;;;;;;5035543;28;20390;-76
2022/11/25 05:50:44;;;;;;;53.72;21.50;;;;;;;;;;5035121;28;20033;-76
2022/11/25 05:53:10;;;;;;;47.40;18.75;;;;;;;;;;5034023;28;20037;-75
2022/11/25 05:55:36;;;;;;;43.22;18.75;;;;;;;;;;5033451;28;20496;-76
2022/11/25 05:58:04;;;;;;;57.60;20.02;;;;;;;;;;5035054;28;20053;-80
2022/11/25 06:00:30;;;;;;;53.17;20.55;;;;;;;;;;5035915;28;20049;-76
2022/11/25 06:02:56;;;;;;;46.28;18.83;;;;;;;;;;5034461;28;20025;-76
2022/11/25 06:05:23;;;;;;;41.10;18.73;;;;;;;;;;5033868;28;20434;-76
2022/11/25 06:07:49;;;;;;;49.38;20.75;;;;;;;;;;5034598;28;20103;-77
2022/11/25 06:10:16;;;;;;;46.13;19.52;;;;;;;;;;5035621;28;20495;-77
2022/11/25 06:12:42;;;;;;;48.95;19.75;;;;;;;;;;5035479;28;20139;-75
2022/11/25 06:15:08;;;;;;;42.92;19.15;;;;;;;;;;5035418;28;20057;-77
2022/11/25 06:17:34;;;;;;;48.85;19.17;;;;;;;;;;5034995;28;20025;-75
2022/11/25 06:20:00;;;;;;;40.58;18.83;;;;;;;;;;5038472;28;20537;-78
2022/11/25 06:22:26;;;;;;;40.92;17.98;;;;;;;;;;5042316;28;20024;-76
2022/11/25 06:24:52;;;;;;;37.10;18.23;;;;;;;;;;5044745;28;20032;-77
2022/11/25 06:27:18;;;;;;;37.83;17.85;;;;;;;;;;5036354;28;20026;-76
2022/11/25 06:29:44;;;;;;;36.63;17.83;;;;;;;;;;5035987;28;20021;-77
2022/11/25 06:32:10;;;;;;;36.00;17.35;;;;;;;;;;5040323;28;20037;-76
2022/11/25 06:34:40;;;;;;;42.13;19.67;;;;;;;;;;5031148;28;20052;-76
2022/11/25 06:37:06;;;;;;;44.15;17.92;;;;;;;;;;5035601;28;20044;-74
2022/11/25 06:39:32;;;;;;;44.63;17.63;;;;;;;;;;5034388;28;20096;-78
2022/11/25 06:41:58;;;;;;;45.60;18.75;;;;;;;;;;5031092;28;20209;-76
2022/11/25 06:44:24;;;;;;;35.35;17.73;;;;;;;;;;5033226;28;20025;-77
2022/11/25 06:46:50;;;;;;;42.15;17.63;;;;;;;;;;5033066;28;20017;-77
2022/11/25 06:49:16;;;;;;;39.28;18.30;;;;;;;;;;5032564;28;20059;-76
2022/11/25 06:51:42;;;;;;;43.50;17.85;;;;;;;;;;5035867;28;20115;-76
2022/11/25 06:54:09;;;;;;;47.47;18.35;;;;;;;;;;5036552;28;20104;-77
2022/11/25 06:56:35;;;;;;;37.85;17.50;;;;;;;;;;5035255;28;20025;-74
2022/11/25 06:59:02;;;;;;;51.65;18.45;;;;;;;;;;5033900;28;20029;-74
2022/11/25 07:01:29;;;;;;;41.15;17.15;;;;;;;;;;5037225;28;20040;-77
2022/11/25 07:03:57;;;;;;;37.20;16.17;;;;;;;;;;5029332;28;20085;-77
2022/11/25 07:06:23;;;;;;;51.45;17.85;;;;;;;;;;5032601;28;20030;-79
2022/11/25 07:08:49;;;;;;;42.03;17.83;;;;;;;;;;5035113;28;20112;-75
2022/11/25 07:11:19;;;;;;;48.28;17.98;;;;;;;;;;5037815;28;20060;-77
2022/11/25 07:13:46;;;;;;;34.47;15.95;;;;;;;;;;5040729;28;20026;-81
2022/11/25 07:16:12;;;;;;;41.25;16.45;;;;;;;;;;5043929;28;20163;-77
2022/11/25 07:18:38;;;;;;;33.78;16.38;;;;;;;;;;5041125;28;20022;-77
2022/11/25 07:21:09;;;;;;;37.20;17.27;;;;;;;;;;5039843;28;20025;-77
2022/11/25 07:23:35;;;;;;;42.72;16.27;;;;;;;;;;5034918;28;20083;-77
2022/11/25 07:26:06;;;;;;;40.92;16.73;;;;;;;;;;5037679;28;20084;-77
2022/11/25 07:28:32;;;;;;;41.30;17.15;;;;;;;;;;5046831;28;20028;-75
2022/11/25 07:31:06;;;;;;;45.90;16.15;;;;;;;;;;5046619;28;20029;-76
2022/11/25 07:33:32;;;;;;;41.15;15.15;;;;;;;;;;5037839;28;20431;-74
2022/11/25 07:36:01;;;;;;;44.80;16.17;;;;;;;;;;5052549;28;20097;-73
2022/11/25 07:38:27;;;;;;;43.13;15.60;;;;;;;;;;5054885;28;20017;-75
2022/11/25 07:40:53;;;;;;;46.72;16.17;;;;;;;;;;5047403;28;20455;-76
2022/11/25 07:43:19;;;;;;;38.00;16.20;;;;;;;;;;5038462;28;20021;-76
2022/11/25 07:45:45;;;;;;;45.80;15.82;;;;;;;;;;5034191;28;20017;-77
2022/11/25 07:48:11;;;;;;;37.95;14.98;;;;;;;;;;5034330;28;20036;-77
2022/11/25 07:50:37;;;;;;;39.10;13.93;;;;;;;;;;5034019;28;20034;-76
2022/11/25 07:53:03;;;;;;;38.22;14.07;;;;;;;;;;5034223;28;20026;-77
2022/11/25 07:55:29;;;;;;;41.40;14.98;;;;;;;;;;5034150;28;20036;-76
2022/11/25 07:57:55;;;;;;;40.90;13.60;;;;;;;;;;5036891;28;20463;-77
2022/11/25 08:00:21;;;;;;;42.38;14.27;;;;;;;;;;5036400;28;20451;-76
2022/11/25 08:02:47;;;;;;;47.85;13.05;;;;;;;;;;5035431;28;20022;-77
2022/11/25 08:05:13;;;;;;;41.38;13.18;;;;;;;;;;5034027;28;20021;-77
2022/11/25 08:07:39;;;;;;;43.40;13.93;;;;;;;;;;5032589;28;20455;-76
2022/11/25 08:10:05;;;;;;;39.53;13.07;;;;;;;;;;5039819;28;20032;-76
2022/11/25 08:12:32;;;;;;;36.08;14.02;;;;;;;;;;5035318;28;20049;-77
2022/11/25 08:14:58;;;;;;;42.85;12.82;;;;;;;;;;5038869;28;20086;-78
2022/11/25 08:17:24;;;;;;;40.65;12.73;;;;;;;;;;5038116;28;20415;-77
2022/11/25 08:19:50;;;;;;;33.03;13.13;;;;;;;;;;5037770;28;20133;-77
2022/11/25 08:22:16;;;;;;;36.22;12.80;;;;;;;;;;5036890;28;20048;-77
2022/11/25 08:24:42;;;;;;;35.60;12.63;;;;;;;;;;5034949;28;20039;-76
2022/11/25 08:27:08;;;;;;;41.97;12.18;;;;;;;;;;5032983;28;20022;-75
2022/11/25 08:29:34;;;;;;;40.30;11.85;;;;;;;;;;5032662;28;20026;-76
2022/11/25 08:31:59;;;;;;;35.45;11.15;;;;;;;;;;5032975;28;20451;-77
2022/11/25 08:34:25;;;;;;;36.10;11.63;;;;;;;;;;5033286;28;20029;-76
2022/11/25 08:36:52;;;;;;;41.13;11.48;;;;;;;;;;5032836;28;20474;-76
2022/11/25 08:39:19;;;;;;;34.72;12.48;;;;;;;;;;5036323;28;20405;-77
2022/11/25 08:41:45;;;;;;;36.20;10.75;;;;;;;;;;5039085;28;20022;-76
2022/11/25 08:44:12;;;;;;;41.92;12.30;;;;;;;;;;5038817;28;20032;-76
2022/11/25 08:46:39;;;;;;;38.20;11.13;;;;;;;;;;5035963;28;20390;-77
2022/11/25 08:49:07;;;;;;;36.58;11.18;;;;;;;;;;5034466;28;20107;-75
2022/11/25 08:51:34;;;;;;;30.77;9.93;;;;;;;;;;5041646;28;20032;-77
2022/11/25 08:54:01;;;;;;;41.60;11.10;;;;;;;;;;5044723;28;20114;-77
2022/11/25 08:56:27;;;;;;;32.53;11.38;;;;;;;;;;5038482;28;20494;-76
2022/11/25 08:58:54;;;;;;;37.92;12.02;;;;;;;;;;5037618;28;20048;-75
2022/11/25 09:01:21;;;;;;;41.53;11.75;;;;;;;;;;5037595;28;20470;-76
2022/11/25 09:03:48;;;;;;;34.08;10.45;;;;;;;;;;5046913;28;20029;-76
2022/11/25 09:06:14;;;;;;;33.28;10.05;;;;;;;;;;5042058;28;20021;-76
2022/11/25 09:08:41;;;;;;;31.52;10.07;;;;;;;;;;5036809;28;20036;-75
2022/11/25 09:11:07;;;;;;;29.58;10.35;;;;;;;;;;5035000;28;20033;-76
2022/11/25 09:13:33;;;;;;;30.23;9.85;;;;;;;;;;5036022;28;20021;-75
2022/11/25 09:16:00;;;;;;;34.78;10.20;;;;;;;;;;5035492;28;20036;-76
2022/11/25 09:18:29;;;;;;;32.97;9.43;;;;;;;;;;5036265;28;20017;-75
2022/11/25 09:20:55;;;;;;;29.60;9.55;;;;;;;;;;5036357;28;20017;-75
2022/11/25 09:23:22;;;;;;;26.98;10.02;;;;;;;;;;5036779;28;20422;-76
2022/11/25 09:25:52;;;;;;;28.30;9.60;;;;;;;;;;5034699;28;20028;-77
2022/11/25 09:28:18;;;;;;;40.13;10.05;;;;;;;;;;5036081;28;20025;-76
2022/11/25 09:30:44;;;;;;;36.10;11.00;;;;;;;;;;5035993;28;20030;-76
2022/11/25 09:33:10;;;;;;;30.98;11.20;;;;;;;;;;5052293;22;20056;-75
2022/11/25 09:35:36;;;;;;;31.67;11.07;;;;;;;;;;5036163;28;20080;-75
2022/11/25 09:38:02;;;;;;;35.25;10.00;;;;;;;;;;5037350;28;20021;-76
2022/11/25 09:40:46;;;;;;;30.23;9.95;;;;;;;;;;5034593;28;20393;-76
2022/11/25 09:49:07;;;;;;;35.95;11.60;;;;;;;;;;5037468;28;20172;-75
2022/11/25 09:51:53;;;;;;;40.50;11.65;;;;;;;;;;5027094;28;20045;-75
2022/11/25 09:54:24;;;;;;;30.95;10.57;;;;;;;;;;5022793;28;20061;-75
2022/11/25 09:56:55;;;;;;;34.05;11.45;;;;;;;;;;5033672;28;20034;-76
2022/11/25 09:59:24;;;;;;;35.15;11.00;;;;;;;;;;5036058;28;20025;-75
2022/11/25 10:01:59;;;;;;;38.00;13.70;;;;;;;;;;5034785;28;20041;-75
2022/11/25 10:04:28;;;;;;;68.00;26.65;;;;;;;;;;5033860;28;20040;-75
2022/11/25 10:06:56;;;;;;;32.83;11.65;;;;;;;;;;5034154;28;20045;-75
2022/11/25 10:09:24;;;;;;;39.83;11.25;;;;;;;;;;5037544;28;20026;-74
2022/11/25 10:11:52;;;;;;;31.85;10.80;;;;;;;;;;5035010;28;20031;-73
2022/11/25 10:14:45;;;;;;;28.85;10.68;;;;;;;;;;5034108;28;20112;-75
2022/11/25 10:17:29;;;;;;;35.20;11.43;;;;;;;;;;5031516;28;20525;-74
2022/11/25 10:19:55;;;;;;;40.58;11.45;;;;;;;;;;5033402;28;20033;-76
2022/11/25 10:22:24;;;;;;;38.35;10.80;;;;;;;;;;5033133;28;20094;-76
2022/11/25 10:24:52;;;;;;;32.35;11.73;;;;;;;;;;5032884;28;20025;-75
2022/11/25 10:27:22;;;;;;;31.60;10.88;;;;;;;;;;5033160;28;20075;-74
2022/11/25 10:29:54;;;;;;;33.28;11.35;;;;;;;;;;5035569;28;20363;-74
2022/11/25 10:32:23;;;;;;;31.83;10.65;;;;;;;;;;5032556;28;20045;-75
2022/11/25 10:34:54;;;;;;;30.25;11.27;;;;;;;;;;5033523;28;20116;-75
2022/11/25 10:37:31;;;;;;;35.03;11.63;;;;;;;;;;5032680;28;20439;-76
2022/11/25 10:39:57;;;;;;;33.92;11.60;;;;;;;;;;5033645;28;20025;-75
2022/11/25 10:42:24;;;;;;;37.97;11.57;;;;;;;;;;5032862;28;20018;-75
2022/11/25 10:44:51;;;;;;;32.05;10.52;;;;;;;;;;5032547;28;20429;-75
2022/11/25 10:47:19;;;;;;;29.75;10.65;;;;;;;;;;5032299;28;20072;-76
2022/11/25 10:49:50;;;;;;;32.70;12.18;;;;;;;;;;5032744;28;20079;-74
2022/11/25 10:52:20;;;;;;;37.13;10.57;;;;;;;;;;5033054;28;20490;-75
2022/11/25 10:54:55;;;;;;;27.10;10.32;;;;;;;;;;5034008;28;20033;-76
2022/11/25 10:57:26;;;;;;;38.10;11.88;;;;;;;;;;5029667;28;20032;-76
2022/11/25 10:59:58;;;;;;;38.47;12.15;;;;;;;;;;5032559;28;20026;-76
2022/11/25 11:02:29;;;;;;;33.25;10.50;;;;;;;;;;5032350;28;20424;-75
2022/11/25 11:05:00;;;;;;;30.00;11.75;;;;;;;;;;5032143;28;20021;-76
2022/11/25 11:07:27;;;;;;;40.45;11.57;;;;;;;;;;5032144;28;20136;-75
2022/11/25 11:09:53;;;;;;;36.05;10.57;;;;;;;;;;5034721;28;20025;-75
2022/11/25 11:12:21;;;;;;;38.22;11.07;;;;;;;;;;5037432;28;20033;-75
2022/11/25 11:14:47;;;;;;;37.13;11.45;;;;;;;;;;5038717;28;20386;-75
2022/11/25 11:17:22;;;;;;;33.00;12.05;;;;;;;;;;5031920;28;20083;-75
2022/11/25 11:20:14;;;;;;;39.83;14.60;;;;;;;;;;5032431;28;20017;-75
2022/11/25 11:22:47;;;;;;;36.75;11.48;;;;;;;;;;5032482;28;20501;-76
2022/11/25 11:25:19;;;;;;;35.37;10.90;;;;;;;;;;5031627;28;20031;-75
2022/11/25 11:27:46;;;;;;;35.53;11.38;;;;;;;;;;5032522;28;20593;-75
2022/11/25 11:30:15;;;;;;;31.95;12.07;;;;;;;;;;5036361;28;20105;-76
2022/11/25 11:32:46;;;;;;;31.73;11.02;;;;;;;;;;5032194;28;20024;-76
2022/11/25 11:35:31;;;;;;;44.47;16.05;;;;;;;;;;5032761;28;20025;-76
2022/11/25 11:38:02;;;;;;;55.90;19.67;;;;;;;;;;5032761;28;20104;-76
2022/11/25 11:40:36;;;;;;;37.15;11.80;;;;;;;;;;5033447;28;20245;-76
2022/11/25 11:43:08;;;;;;;35.17;11.35;;;;;;;;;;5036870;28;20029;-76
2022/11/25 11:45:58;;;;;;;31.92;10.82;;;;;;;;;;5033720;28;20031;-76
2022/11/25 11:48:29;;;;;;;34.55;11.13;;;;;;;;;;5032501;28;20033;-76
2022/11/25 11:51:07;;;;;;;38.70;11.90;;;;;;;;;;5032778;28;20025;-76
2022/11/25 11:53:42;;;;;;;37.63;12.10;;;;;;;;;;5033295;28;20021;-76
2022/11/25 11:56:14;;;;;;;29.55;10.88;;;;;;;;;;5035332;28;20036;-75
2022/11/25 11:58:46;;;;;;;31.70;11.73;;;;;;;;;;5038552;28;20026;-75
2022/11/25 12:01:15;;;;;;;31.75;11.70;;;;;;;;;;5039096;28;20032;-76
2022/11/25 12:03:46;;;;;;;33.67;11.90;;;;;;;;;;5033837;28;20029;-76
2022/11/25 12:06:13;;;;;;;34.83;11.45;;;;;;;;;;5037536;28;20034;-76
2022/11/25 12:08:39;;;;;;;31.10;11.55;;;;;;;;;;5038943;28;20029;-75
2022/11/25 12:11:16;;;;;;;48.33;13.23;;;;;;;;;;5036170;28;20424;-76
2022/11/25 12:13:42;;;;;;;35.13;12.82;;;;;;;;;;5037865;28;20104;-78
2022/11/25 12:16:20;;;;;;;32.65;12.35;;;;;;;;;;5037324;28;20516;-77
2022/11/25 12:18:56;;;;;;;34.55;11.13;;;;;;;;;;5038017;28;20025;-75
2022/11/25 12:21:29;;;;;;;34.63;11.98;;;;;;;;;;5034498;28;20018;-75
2022/11/25 12:24:04;;;;;;;42.10;11.95;;;;;;;;;;5032410;28;20022;-74
2022/11/25 12:26:45;;;;;;;39.72;11.85;;;;;;;;;;5036948;28;20025;-77
2022/11/25 12:29:29;;;;;;;38.70;11.63;;;;;;;;;;5045027;28;20032;-76
2022/11/25 12:32:01;;;;;;;31.20;10.27;;;;;;;;;;5036870;28;20108;-76
2022/11/25 12:34:33;;;;;;;39.83;10.52;;;;;;;;;;5039701;28;20033;-76
2022/11/25 12:37:05;;;;;;;29.90;9.90;;;;;;;;;;5038709;28;20025;-75
2022/11/25 12:39:35;;;;;;;24.48;9.32;;;;;;;;;;5041441;28;20101;-76
2022/11/25 12:42:03;;;;;;;33.38;11.02;;;;;;;;;;5034761;28;20025;-77
2022/11/25 12:44:41;;;;;;;39.85;12.00;;;;;;;;;;5034915;28;20067;-76
2022/11/25 12:47:09;;;;;;;40.05;12.68;;;;;;;;;;5046990;28;20033;-76
2022/11/25 12:49:41;;;;;;;37.15;10.88;;;;;;;;;;5042586;28;20144;-76
2022/11/25 12:52:08;;;;;;;25.98;10.85;;;;;;;;;;5035619;28;20354;-77
2022/11/25 12:54:38;;;;;;;34.40;10.65;;;;;;;;;;5037700;28;20044;-75
2022/11/25 12:57:07;;;;;;;29.35;11.48;;;;;;;;;;5037123;28;20136;-76
2022/11/25 12:59:52;;;;;;;28.48;9.40;;;;;;;;;;5036249;28;20021;-78
2022/11/25 13:02:30;;;;;;;37.75;11.43;;;;;;;;;;5047498;28;20024;-75
2022/11/25 13:05:11;;;;;;;27.70;10.05;;;;;;;;;;5047566;28;20057;-77
2022/11/25 13:07:48;;;;;;;37.28;12.75;;;;;;;;;;5036851;28;20037;-75
2022/11/25 13:10:20;;;;;;;34.25;10.90;;;;;;;;;;5032067;28;20037;-76
2022/11/25 13:13:10;;;;;;;34.60;11.90;;;;;;;;;;5034011;28;20029;-77
2022/11/25 13:15:43;;;;;;;36.38;12.85;;;;;;;;;;5027814;28;20037;-77
2022/11/25 13:18:16;;;;;;;40.15;11.75;;;;;;;;;;5038109;28;20100;-78
2022/11/25 13:20:47;;;;;;;37.10;11.60;;;;;;;;;;5050109;28;20029;-77
2022/11/25 13:23:16;;;;;;;34.17;10.93;;;;;;;;;;5044185;28;20045;-76
2022/11/25 13:25:43;;;;;;;33.72;11.07;;;;;;;;;;5037647;28;20025;-77
2022/11/25 13:28:28;;;;;;;27.23;10.93;;;;;;;;;;5037252;28;20536;-77
2022/11/25 13:30:54;;;;;;;;;;;;;;;;;;5031904;28;20036;-76
2022/11/25 13:33:20;;;;;;;35.38;10.73;;;;;;;;;;5039403;28;19913;-76
2022/11/25 13:35:50;;;;;;;30.65;10.35;;;;;;;;;;5049125;28;20085;-76
2022/11/25 13:38:34;;;;;;;29.80;11.07;;;;;;;;;;5041755;28;20034;-77
2022/11/25 13:41:02;;;;;;;34.47;11.48;;;;;;;;;;5042240;28;20317;-79
2022/11/25 13:43:28;;;;;;;35.05;11.18;;;;;;;;;;5049040;28;20017;-76
2022/11/25 13:45:55;;;;;;;26.95;10.15;;;;;;;;;;5035635;28;20401;-76
2022/11/25 13:48:28;;;;;;;35.75;10.70;;;;;;;;;;5038761;28;20052;-75
2022/11/25 13:51:13;;;;;;;34.20;10.82;;;;;;;;;;5046115;28;20049;-76
2022/11/25 13:53:39;;;;;;;32.90;13.27;;;;;;;;;;5040036;28;20287;-74
2022/11/25 13:56:12;;;;;;;51.13;17.45;;;;;;;;;;5045007;28;20038;-76
2022/11/25 13:58:38;;;;;;;42.67;15.85;;;;;;;;;;5042803;28;20025;-77
2022/11/25 14:01:19;;;;;;;42.30;12.93;;;;;;;;;;5045304;28;20080;-77
2022/11/25 14:03:47;;;;;;;37.13;11.70;;;;;;;;;;5032875;28;20024;-75
2022/11/25 14:06:31;;;;;;;29.38;10.60;;;;;;;;;;5036609;28;20501;-77
2022/11/25 14:09:01;;;;;;;30.52;10.98;;;;;;;;;;5039122;28;20091;-77
2022/11/25 14:11:40;;;;;;;37.15;12.45;;;;;;;;;;5035339;28;20024;-77
2022/11/25 14:14:19;;;;;;;33.13;11.55;;;;;;;;;;5034317;28;20029;-77
2022/11/25 14:16:58;;;;;;;29.30;11.02;;;;;;;;;;5032399;28;20063;-77
2022/11/25 14:19:30;;;;;;;29.42;10.80;;;;;;;;;;5033850;28;20108;-75
2022/11/25 14:22:14;;;;;;;31.85;10.95;;;;;;;;;;5037865;28;20110;-76
2022/11/25 14:24:43;;;;;;;35.90;12.13;;;;;;;;;;5029918;28;20426;-76
2022/11/25 14:27:14;;;;;;;49.13;17.58;;;;;;;;;;5038137;28;20064;-76
2022/11/25 14:29:48;;;;;;;64.97;29.00;;;;;;;;;;5034096;28;20064;-76
2022/11/25 14:32:29;;;;;;;39.17;11.15;;;;;;;;;;5037149;28;20041;-77
2022/11/25 14:35:15;;;;;;;33.25;11.00;;;;;;;;;;5033410;28;20064;-77
2022/11/25 14:37:47;;;;;;;42.95;11.23;;;;;;;;;;5030571;28;20447;-77
2022/11/25 14:40:19;;;;;;;33.33;11.68;;;;;;;;;;5034353;28;20032;-76
2022/11/25 14:42:47;;;;;;;30.40;10.88;;;;;;;;;;5031719;28;20356;-76